sensor_id;sensor_type;location;lat;lon;timestamp;P1;durP1;ratioP1;P2;durP2;ratioP2
5147;SDS011;2592;48.140;7.614;2022-10-22T00:00:54;7.40;;;1.70;;
5147;SDS011;2592;48.140;7.614;2022-10-22T00:03:21;4.00;;;2.17;;
5147;SDS011;2592;48.140;7.614;2022-10-22T00:05:47;3.10;;;1.90;;
5147;SDS011;2592;48.140;7.614;2022-10-22T00:08:13;4.53;;;1.80;;
5147;SDS011;2592;48.140;7.614;2022-10-22T00:10:40;2.67;;;1.63;;
5147;SDS011;2592;48.140;7.614;2022-10-22T00:13:08;2.53;;;1.80;;
5147;SDS011;2592;48.140;7.614;2022-10-22T00:15:35;5.40;;;2.60;;
5147;SDS011;2592;48.140;7.614;2022-10-22T00:18:01;3.00;;;2.07;;
5147;SDS011;2592;48.140;7.614;2022-10-22T00:20:28;4.10;;;1.90;;
5147;SDS011;2592;48.140;7.614;2022-10-22T00:22:54;5.50;;;1.60;;
5147;SDS011;2592;48.140;7.614;2022-10-22T00:25:21;3.13;;;1.63;;
5147;SDS011;2592;48.140;7.614;2022-10-22T00:27:47;3.30;;;2.30;;
5147;SDS011;2592;48.140;7.614;2022-10-22T00:30:15;3.90;;;2.50;;
5147;SDS011;2592;48.140;7.614;2022-10-22T00:32:41;3.40;;;2.57;;
5147;SDS011;2592;48.140;7.614;2022-10-22T00:35:08;4.53;;;2.67;;
5147;SDS011;2592;48.140;7.614;2022-10-22T00:37:34;4.20;;;1.80;;
5147;SDS011;2592;48.140;7.614;2022-10-22T00:40:01;4.33;;;2.37;;
5147;SDS011;2592;48.140;7.614;2022-10-22T00:42:27;8.00;;;2.60;;
5147;SDS011;2592;48.140;7.614;2022-10-22T00:44:59;5.97;;;2.47;;
5147;SDS011;2592;48.140;7.614;2022-10-22T00:47:27;3.67;;;2.27;;
5147;SDS011;2592;48.140;7.614;2022-10-22T00:49:56;4.00;;;2.30;;
5147;SDS011;2592;48.140;7.614;2022-10-22T00:52:22;3.90;;;2.60;;
5147;SDS011;2592;48.140;7.614;2022-10-22T00:54:49;7.97;;;2.90;;
5147;SDS011;2592;48.140;7.614;2022-10-22T00:57:17;8.07;;;3.80;;
5147;SDS011;2592;48.140;7.614;2022-10-22T00:59:43;5.93;;;2.90;;
5147;SDS011;2592;48.140;7.614;2022-10-22T01:02:10;6.53;;;3.33;;
5147;SDS011;2592;48.140;7.614;2022-10-22T01:04:38;4.23;;;2.47;;
5147;SDS011;2592;48.140;7.614;2022-10-22T01:07:05;3.50;;;2.20;;
5147;SDS011;2592;48.140;7.614;2022-10-22T01:09:33;2.03;;;1.60;;
5147;SDS011;2592;48.140;7.614;2022-10-22T01:12:11;2.73;;;1.83;;
5147;SDS011;2592;48.140;7.614;2022-10-22T01:14:42;3.43;;;2.00;;
5147;SDS011;2592;48.140;7.614;2022-10-22T01:17:10;2.43;;;1.50;;
5147;SDS011;2592;48.140;7.614;2022-10-22T01:19:45;2.17;;;1.53;;
5147;SDS011;2592;48.140;7.614;2022-10-22T01:22:17;3.60;;;1.83;;
5147;SDS011;2592;48.140;7.614;2022-10-22T01:24:51;2.93;;;1.43;;
5147;SDS011;2592;48.140;7.614;2022-10-22T01:27:23;3.80;;;1.77;;
5147;SDS011;2592;48.140;7.614;2022-10-22T01:29:53;2.90;;;1.50;;
5147;SDS011;2592;48.140;7.614;2022-10-22T01:32:21;2.73;;;1.67;;
5147;SDS011;2592;48.140;7.614;2022-10-22T01:34:49;5.30;;;2.10;;
5147;SDS011;2592;48.140;7.614;2022-10-22T01:37:17;3.90;;;2.10;;
5147;SDS011;2592;48.140;7.614;2022-10-22T01:39:45;3.43;;;1.50;;
5147;SDS011;2592;48.140;7.614;2022-10-22T01:42:12;4.90;;;1.90;;
5147;SDS011;2592;48.140;7.614;2022-10-22T01:44:39;3.87;;;1.87;;
5147;SDS011;2592;48.140;7.614;2022-10-22T01:47:10;2.33;;;1.20;;
5147;SDS011;2592;48.140;7.614;2022-10-22T01:49:47;3.70;;;2.13;;
5147;SDS011;2592;48.140;7.614;2022-10-22T01:52:22;1.87;;;1.10;;
5147;SDS011;2592;48.140;7.614;2022-10-22T01:54:54;4.90;;;1.30;;
5147;SDS011;2592;48.140;7.614;2022-10-22T01:57:28;2.83;;;1.20;;
5147;SDS011;2592;48.140;7.614;2022-10-22T01:59:58;1.40;;;1.10;;
5147;SDS011;2592;48.140;7.614;2022-10-22T02:02:30;4.20;;;1.33;;
5147;SDS011;2592;48.140;7.614;2022-10-22T02:04:59;1.80;;;1.10;;
5147;SDS011;2592;48.140;7.614;2022-10-22T02:07:27;1.87;;;0.90;;
5147;SDS011;2592;48.140;7.614;2022-10-22T02:09:56;1.43;;;0.90;;
5147;SDS011;2592;48.140;7.614;2022-10-22T02:12:23;1.37;;;0.80;;
5147;SDS011;2592;48.140;7.614;2022-10-22T02:14:51;0.97;;;0.70;;
5147;SDS011;2592;48.140;7.614;2022-10-22T02:17:19;1.50;;;0.80;;
5147;SDS011;2592;48.140;7.614;2022-10-22T02:19:49;3.00;;;1.20;;
5147;SDS011;2592;48.140;7.614;2022-10-22T02:22:17;2.10;;;0.87;;
5147;SDS011;2592;48.140;7.614;2022-10-22T02:24:45;2.00;;;0.90;;
5147;SDS011;2592;48.140;7.614;2022-10-22T02:27:15;1.10;;;0.87;;
5147;SDS011;2592;48.140;7.614;2022-10-22T02:29:45;1.50;;;0.73;;
5147;SDS011;2592;48.140;7.614;2022-10-22T02:32:17;1.80;;;0.90;;
5147;SDS011;2592;48.140;7.614;2022-10-22T02:34:45;1.00;;;0.90;;
5147;SDS011;2592;48.140;7.614;2022-10-22T02:37:13;1.47;;;1.00;;
5147;SDS011;2592;48.140;7.614;2022-10-22T02:39:41;1.30;;;0.80;;
5147;SDS011;2592;48.140;7.614;2022-10-22T02:42:08;1.70;;;0.80;;
5147;SDS011;2592;48.140;7.614;2022-10-22T02:44:36;1.83;;;0.93;;
5147;SDS011;2592;48.140;7.614;2022-10-22T02:47:02;1.87;;;1.10;;
5147;SDS011;2592;48.140;7.614;2022-10-22T02:49:29;1.67;;;0.90;;
5147;SDS011;2592;48.140;7.614;2022-10-22T02:51:55;2.13;;;1.00;;
5147;SDS011;2592;48.140;7.614;2022-10-22T02:54:23;2.10;;;0.70;;
5147;SDS011;2592;48.140;7.614;2022-10-22T02:56:49;0.77;;;0.60;;
5147;SDS011;2592;48.140;7.614;2022-10-22T02:59:16;1.00;;;0.70;;
5147;SDS011;2592;48.140;7.614;2022-10-22T03:01:42;1.50;;;0.70;;
5147;SDS011;2592;48.140;7.614;2022-10-22T03:04:08;0.60;;;0.50;;
5147;SDS011;2592;48.140;7.614;2022-10-22T03:06:35;2.70;;;0.80;;
5147;SDS011;2592;48.140;7.614;2022-10-22T03:09:01;0.80;;;0.70;;
5147;SDS011;2592;48.140;7.614;2022-10-22T03:11:29;3.63;;;0.80;;
5147;SDS011;2592;48.140;7.614;2022-10-22T03:13:55;1.93;;;1.10;;
5147;SDS011;2592;48.140;7.614;2022-10-22T03:16:22;0.70;;;0.60;;
5147;SDS011;2592;48.140;7.614;2022-10-22T03:18:48;0.80;;;0.67;;
5147;SDS011;2592;48.140;7.614;2022-10-22T03:21:27;2.60;;;0.93;;
5147;SDS011;2592;48.140;7.614;2022-10-22T03:23:54;1.10;;;0.63;;
5147;SDS011;2592;48.140;7.614;2022-10-22T03:26:22;5.47;;;0.90;;
5147;SDS011;2592;48.140;7.614;2022-10-22T03:28:50;0.90;;;0.80;;
5147;SDS011;2592;48.140;7.614;2022-10-22T03:31:16;3.07;;;0.67;;
5147;SDS011;2592;48.140;7.614;2022-10-22T03:33:43;0.97;;;0.70;;
5147;SDS011;2592;48.140;7.614;2022-10-22T03:36:09;2.07;;;0.90;;
5147;SDS011;2592;48.140;7.614;2022-10-22T03:38:35;2.27;;;0.70;;
5147;SDS011;2592;48.140;7.614;2022-10-22T03:41:02;2.40;;;0.87;;
5147;SDS011;2592;48.140;7.614;2022-10-22T03:43:29;1.97;;;1.10;;
5147;SDS011;2592;48.140;7.614;2022-10-22T03:45:56;1.17;;;0.70;;
5147;SDS011;2592;48.140;7.614;2022-10-22T03:48:23;3.27;;;1.10;;
5147;SDS011;2592;48.140;7.614;2022-10-22T03:50:49;2.70;;;0.90;;
5147;SDS011;2592;48.140;7.614;2022-10-22T03:53:16;6.83;;;1.03;;
5147;SDS011;2592;48.140;7.614;2022-10-22T03:55:42;2.17;;;1.10;;
5147;SDS011;2592;48.140;7.614;2022-10-22T03:58:08;1.90;;;1.10;;
5147;SDS011;2592;48.140;7.614;2022-10-22T04:00:35;5.80;;;1.47;;
5147;SDS011;2592;48.140;7.614;2022-10-22T04:03:03;1.30;;;1.20;;
5147;SDS011;2592;48.140;7.614;2022-10-22T04:05:30;6.63;;;1.87;;
5147;SDS011;2592;48.140;7.614;2022-10-22T04:07:57;9.47;;;2.30;;
5147;SDS011;2592;48.140;7.614;2022-10-22T04:10:23;6.27;;;2.90;;
5147;SDS011;2592;48.140;7.614;2022-10-22T04:12:50;3.23;;;2.10;;
5147;SDS011;2592;48.140;7.614;2022-10-22T04:15:16;2.90;;;2.33;;
5147;SDS011;2592;48.140;7.614;2022-10-22T04:17:42;2.80;;;2.53;;
5147;SDS011;2592;48.140;7.614;2022-10-22T04:20:10;3.30;;;2.50;;
5147;SDS011;2592;48.140;7.614;2022-10-22T04:22:37;7.63;;;2.50;;
5147;SDS011;2592;48.140;7.614;2022-10-22T04:25:03;5.20;;;3.07;;
5147;SDS011;2592;48.140;7.614;2022-10-22T04:27:30;3.40;;;3.10;;
5147;SDS011;2592;48.140;7.614;2022-10-22T04:29:56;6.70;;;3.90;;
5147;SDS011;2592;48.140;7.614;2022-10-22T04:32:23;4.73;;;3.80;;
5147;SDS011;2592;48.140;7.614;2022-10-22T04:34:49;15.33;;;5.30;;
5147;SDS011;2592;48.140;7.614;2022-10-22T04:37:17;5.50;;;4.27;;
5147;SDS011;2592;48.140;7.614;2022-10-22T04:39:43;5.60;;;4.67;;
5147;SDS011;2592;48.140;7.614;2022-10-22T04:42:10;7.13;;;5.03;;
5147;SDS011;2592;48.140;7.614;2022-10-22T04:44:36;6.67;;;4.97;;
5147;SDS011;2592;48.140;7.614;2022-10-22T04:47:03;6.27;;;4.37;;
5147;SDS011;2592;48.140;7.614;2022-10-22T04:49:29;5.40;;;4.80;;
5147;SDS011;2592;48.140;7.614;2022-10-22T04:51:55;6.40;;;5.80;;
5147;SDS011;2592;48.140;7.614;2022-10-22T04:54:23;10.90;;;6.00;;
5147;SDS011;2592;48.140;7.614;2022-10-22T04:56:50;8.67;;;6.80;;
5147;SDS011;2592;48.140;7.614;2022-10-22T04:59:16;10.80;;;7.20;;
5147;SDS011;2592;48.140;7.614;2022-10-22T05:01:42;8.03;;;6.90;;
5147;SDS011;2592;48.140;7.614;2022-10-22T05:04:10;8.50;;;7.60;;
5147;SDS011;2592;48.140;7.614;2022-10-22T05:06:36;7.90;;;6.90;;
5147;SDS011;2592;48.140;7.614;2022-10-22T05:09:04;9.57;;;7.97;;
5147;SDS011;2592;48.140;7.614;2022-10-22T05:11:33;13.90;;;8.27;;
5147;SDS011;2592;48.140;7.614;2022-10-22T05:14:00;21.93;;;10.17;;
5147;SDS011;2592;48.140;7.614;2022-10-22T05:16:27;23.70;;;11.93;;
5147;SDS011;2592;48.140;7.614;2022-10-22T05:18:53;22.93;;;13.00;;
5147;SDS011;2592;48.140;7.614;2022-10-22T05:21:20;17.07;;;10.87;;
5147;SDS011;2592;48.140;7.614;2022-10-22T05:23:47;16.83;;;11.30;;
5147;SDS011;2592;48.140;7.614;2022-10-22T05:26:15;14.23;;;8.30;;
5147;SDS011;2592;48.140;7.614;2022-10-22T05:28:43;12.63;;;9.60;;
5147;SDS011;2592;48.140;7.614;2022-10-22T05:31:10;16.10;;;9.73;;
5147;SDS011;2592;48.140;7.614;2022-10-22T05:33:37;13.40;;;8.53;;
5147;SDS011;2592;48.140;7.614;2022-10-22T05:36:04;11.70;;;8.00;;
5147;SDS011;2592;48.140;7.614;2022-10-22T05:38:31;9.63;;;8.50;;
5147;SDS011;2592;48.140;7.614;2022-10-22T05:40:58;9.73;;;7.57;;
5147;SDS011;2592;48.140;7.614;2022-10-22T05:43:25;10.00;;;7.30;;
5147;SDS011;2592;48.140;7.614;2022-10-22T05:45:53;11.20;;;7.10;;
5147;SDS011;2592;48.140;7.614;2022-10-22T05:48:19;8.20;;;7.40;;
5147;SDS011;2592;48.140;7.614;2022-10-22T05:50:46;13.83;;;7.90;;
5147;SDS011;2592;48.140;7.614;2022-10-22T05:53:14;12.13;;;6.70;;
5147;SDS011;2592;48.140;7.614;2022-10-22T05:55:41;10.70;;;7.37;;
5147;SDS011;2592;48.140;7.614;2022-10-22T05:58:08;9.57;;;7.90;;
5147;SDS011;2592;48.140;7.614;2022-10-22T06:00:34;9.33;;;7.00;;
5147;SDS011;2592;48.140;7.614;2022-10-22T06:03:02;8.13;;;5.97;;
5147;SDS011;2592;48.140;7.614;2022-10-22T06:05:28;11.50;;;6.47;;
5147;SDS011;2592;48.140;7.614;2022-10-22T06:07:55;8.53;;;6.30;;
5147;SDS011;2592;48.140;7.614;2022-10-22T06:10:22;7.07;;;5.43;;
5147;SDS011;2592;48.140;7.614;2022-10-22T06:12:49;8.37;;;7.27;;
5147;SDS011;2592;48.140;7.614;2022-10-22T06:15:16;12.20;;;10.83;;
5147;SDS011;2592;48.140;7.614;2022-10-22T06:17:43;9.57;;;7.80;;
5147;SDS011;2592;48.140;7.614;2022-10-22T06:20:11;8.97;;;7.50;;
5147;SDS011;2592;48.140;7.614;2022-10-22T06:22:38;9.17;;;7.23;;
5147;SDS011;2592;48.140;7.614;2022-10-22T06:25:05;11.13;;;8.40;;
5147;SDS011;2592;48.140;7.614;2022-10-22T06:27:32;10.53;;;7.93;;
5147;SDS011;2592;48.140;7.614;2022-10-22T06:29:58;10.30;;;8.40;;
5147;SDS011;2592;48.140;7.614;2022-10-22T06:32:25;33.03;;;8.50;;
5147;SDS011;2592;48.140;7.614;2022-10-22T06:34:51;14.47;;;10.40;;
5147;SDS011;2592;48.140;7.614;2022-10-22T06:37:19;14.10;;;10.80;;
5147;SDS011;2592;48.140;7.614;2022-10-22T06:39:45;14.57;;;10.30;;
5147;SDS011;2592;48.140;7.614;2022-10-22T06:42:12;16.10;;;12.27;;
5147;SDS011;2592;48.140;7.614;2022-10-22T06:44:38;12.93;;;8.90;;
5147;SDS011;2592;48.140;7.614;2022-10-22T06:47:04;17.10;;;9.40;;
5147;SDS011;2592;48.140;7.614;2022-10-22T06:49:31;13.03;;;10.33;;
5147;SDS011;2592;48.140;7.614;2022-10-22T06:51:57;14.53;;;9.30;;
5147;SDS011;2592;48.140;7.614;2022-10-22T06:54:25;15.53;;;11.90;;
5147;SDS011;2592;48.140;7.614;2022-10-22T06:56:51;15.30;;;10.73;;
5147;SDS011;2592;48.140;7.614;2022-10-22T06:59:18;15.23;;;9.87;;
5147;SDS011;2592;48.140;7.614;2022-10-22T07:01:44;12.93;;;9.50;;
5147;SDS011;2592;48.140;7.614;2022-10-22T07:04:11;14.20;;;8.63;;
5147;SDS011;2592;48.140;7.614;2022-10-22T07:06:37;11.33;;;8.03;;
5147;SDS011;2592;48.140;7.614;2022-10-22T07:09:04;11.60;;;8.83;;
5147;SDS011;2592;48.140;7.614;2022-10-22T07:11:36;10.77;;;8.50;;
5147;SDS011;2592;48.140;7.614;2022-10-22T07:14:04;18.67;;;9.00;;
5147;SDS011;2592;48.140;7.614;2022-10-22T07:16:30;11.20;;;8.43;;
5147;SDS011;2592;48.140;7.614;2022-10-22T07:18:56;11.00;;;9.30;;
5147;SDS011;2592;48.140;7.614;2022-10-22T07:21:23;11.47;;;8.90;;
5147;SDS011;2592;48.140;7.614;2022-10-22T07:23:50;12.77;;;9.80;;
5147;SDS011;2592;48.140;7.614;2022-10-22T07:26:16;15.17;;;8.13;;
5147;SDS011;2592;48.140;7.614;2022-10-22T07:28:45;19.07;;;8.30;;
5147;SDS011;2592;48.140;7.614;2022-10-22T07:31:13;11.80;;;8.63;;
5147;SDS011;2592;48.140;7.614;2022-10-22T07:33:39;11.77;;;9.03;;
5147;SDS011;2592;48.140;7.614;2022-10-22T07:36:07;13.30;;;8.60;;
5147;SDS011;2592;48.140;7.614;2022-10-22T07:38:34;11.27;;;8.80;;
5147;SDS011;2592;48.140;7.614;2022-10-22T07:41:00;16.53;;;9.10;;
5147;SDS011;2592;48.140;7.614;2022-10-22T07:43:27;14.70;;;8.73;;
5147;SDS011;2592;48.140;7.614;2022-10-22T07:45:54;10.53;;;9.10;;
5147;SDS011;2592;48.140;7.614;2022-10-22T07:48:21;10.50;;;9.10;;
5147;SDS011;2592;48.140;7.614;2022-10-22T07:50:48;11.87;;;9.00;;
5147;SDS011;2592;48.140;7.614;2022-10-22T07:53:14;18.73;;;10.70;;
5147;SDS011;2592;48.140;7.614;2022-10-22T07:55:41;13.80;;;9.10;;
5147;SDS011;2592;48.140;7.614;2022-10-22T07:58:07;10.43;;;8.33;;
5147;SDS011;2592;48.140;7.614;2022-10-22T08:00:34;9.83;;;8.57;;
5147;SDS011;2592;48.140;7.614;2022-10-22T08:03:03;15.30;;;9.20;;
5147;SDS011;2592;48.140;7.614;2022-10-22T08:05:29;12.87;;;8.50;;
5147;SDS011;2592;48.140;7.614;2022-10-22T08:07:55;10.77;;;8.87;;
5147;SDS011;2592;48.140;7.614;2022-10-22T08:10:22;12.77;;;9.27;;
5147;SDS011;2592;48.140;7.614;2022-10-22T08:12:48;17.63;;;11.90;;
5147;SDS011;2592;48.140;7.614;2022-10-22T08:15:15;64.40;;;42.07;;
5147;SDS011;2592;48.140;7.614;2022-10-22T08:17:41;86.90;;;61.10;;
5147;SDS011;2592;48.140;7.614;2022-10-22T08:20:09;20.10;;;16.13;;
5147;SDS011;2592;48.140;7.614;2022-10-22T08:22:36;23.00;;;19.53;;
5147;SDS011;2592;48.140;7.614;2022-10-22T08:25:02;17.50;;;10.17;;
5147;SDS011;2592;48.140;7.614;2022-10-22T08:27:29;16.27;;;8.50;;
5147;SDS011;2592;48.140;7.614;2022-10-22T08:29:55;16.43;;;10.03;;
5147;SDS011;2592;48.140;7.614;2022-10-22T08:32:22;15.97;;;8.80;;
5147;SDS011;2592;48.140;7.614;2022-10-22T08:34:48;8.10;;;6.70;;
5147;SDS011;2592;48.140;7.614;2022-10-22T08:37:16;8.77;;;6.40;;
5147;SDS011;2592;48.140;7.614;2022-10-22T08:39:42;8.87;;;7.37;;
5147;SDS011;2592;48.140;7.614;2022-10-22T08:42:20;15.83;;;7.53;;
5147;SDS011;2592;48.140;7.614;2022-10-22T08:44:59;8.13;;;7.10;;
5147;SDS011;2592;48.140;7.614;2022-10-22T08:47:35;7.10;;;5.47;;
5147;SDS011;2592;48.140;7.614;2022-10-22T08:50:07;6.40;;;5.60;;
5147;SDS011;2592;48.140;7.614;2022-10-22T08:52:35;9.43;;;5.97;;
5147;SDS011;2592;48.140;7.614;2022-10-22T08:55:05;9.60;;;5.60;;
5147;SDS011;2592;48.140;7.614;2022-10-22T08:57:40;9.97;;;5.47;;
5147;SDS011;2592;48.140;7.614;2022-10-22T09:00:10;9.10;;;5.87;;
5147;SDS011;2592;48.140;7.614;2022-10-22T09:02:38;7.93;;;5.50;;
5147;SDS011;2592;48.140;7.614;2022-10-22T09:05:14;6.77;;;5.63;;
5147;SDS011;2592;48.140;7.614;2022-10-22T09:07:47;7.60;;;5.40;;
5147;SDS011;2592;48.140;7.614;2022-10-22T09:10:15;8.17;;;5.27;;
5147;SDS011;2592;48.140;7.614;2022-10-22T09:12:42;10.03;;;6.20;;
5147;SDS011;2592;48.140;7.614;2022-10-22T09:15:11;9.07;;;5.63;;
5147;SDS011;2592;48.140;7.614;2022-10-22T09:17:40;6.77;;;5.27;;
5147;SDS011;2592;48.140;7.614;2022-10-22T09:20:12;7.23;;;5.40;;
5147;SDS011;2592;48.140;7.614;2022-10-22T09:22:41;7.93;;;6.63;;
5147;SDS011;2592;48.140;7.614;2022-10-22T09:25:18;10.10;;;5.17;;
5147;SDS011;2592;48.140;7.614;2022-10-22T09:27:44;8.00;;;5.03;;
5147;SDS011;2592;48.140;7.614;2022-10-22T09:30:12;7.87;;;3.80;;
5147;SDS011;2592;48.140;7.614;2022-10-22T09:32:40;8.57;;;5.20;;
5147;SDS011;2592;48.140;7.614;2022-10-22T09:35:08;6.80;;;3.50;;
5147;SDS011;2592;48.140;7.614;2022-10-22T09:37:35;5.00;;;3.10;;
5147;SDS011;2592;48.140;7.614;2022-10-22T09:40:03;3.30;;;3.00;;
5147;SDS011;2592;48.140;7.614;2022-10-22T09:42:31;7.03;;;3.27;;
5147;SDS011;2592;48.140;7.614;2022-10-22T09:44:59;6.47;;;3.30;;
5147;SDS011;2592;48.140;7.614;2022-10-22T09:47:27;4.10;;;2.87;;
5147;SDS011;2592;48.140;7.614;2022-10-22T09:50:03;4.40;;;2.60;;
5147;SDS011;2592;48.140;7.614;2022-10-22T09:52:29;5.47;;;2.97;;
5147;SDS011;2592;48.140;7.614;2022-10-22T09:54:57;3.53;;;2.50;;
5147;SDS011;2592;48.140;7.614;2022-10-22T09:57:27;5.67;;;2.90;;
5147;SDS011;2592;48.140;7.614;2022-10-22T09:59:55;3.00;;;2.27;;
5147;SDS011;2592;48.140;7.614;2022-10-22T10:02:22;15.47;;;2.73;;
5147;SDS011;2592;48.140;7.614;2022-10-22T10:04:50;5.60;;;2.40;;
5147;SDS011;2592;48.140;7.614;2022-10-22T10:07:17;5.90;;;3.10;;
5147;SDS011;2592;48.140;7.614;2022-10-22T10:09:44;2.37;;;2.17;;
5147;SDS011;2592;48.140;7.614;2022-10-22T10:12:15;7.70;;;3.50;;
5147;SDS011;2592;48.140;7.614;2022-10-22T10:14:47;11.30;;;2.57;;
5147;SDS011;2592;48.140;7.614;2022-10-22T10:17:22;11.07;;;2.73;;
5147;SDS011;2592;48.140;7.614;2022-10-22T10:19:55;11.93;;;2.40;;
5147;SDS011;2592;48.140;7.614;2022-10-22T10:22:27;7.80;;;1.77;;
5147;SDS011;2592;48.140;7.614;2022-10-22T10:25:02;7.70;;;2.10;;
5147;SDS011;2592;48.140;7.614;2022-10-22T10:27:33;4.70;;;2.13;;
5147;SDS011;2592;48.140;7.614;2022-10-22T10:30:00;6.83;;;2.10;;
5147;SDS011;2592;48.140;7.614;2022-10-22T10:32:38;2.90;;;1.43;;
5147;SDS011;2592;48.140;7.614;2022-10-22T10:35:14;6.90;;;2.77;;
5147;SDS011;2592;48.140;7.614;2022-10-22T10:37:43;6.40;;;1.90;;
5147;SDS011;2592;48.140;7.614;2022-10-22T10:40:15;5.70;;;2.00;;
5147;SDS011;2592;48.140;7.614;2022-10-22T10:42:45;5.60;;;1.90;;
5147;SDS011;2592;48.140;7.614;2022-10-22T10:45:16;4.13;;;2.03;;
5147;SDS011;2592;48.140;7.614;2022-10-22T10:47:53;7.20;;;1.50;;
5147;SDS011;2592;48.140;7.614;2022-10-22T10:50:23;4.73;;;1.50;;
5147;SDS011;2592;48.140;7.614;2022-10-22T10:52:53;6.50;;;2.00;;
5147;SDS011;2592;48.140;7.614;2022-10-22T10:55:24;3.70;;;1.77;;
5147;SDS011;2592;48.140;7.614;2022-10-22T10:57:56;4.23;;;1.63;;
5147;SDS011;2592;48.140;7.614;2022-10-22T11:00:26;5.40;;;1.70;;
5147;SDS011;2592;48.140;7.614;2022-10-22T11:03:16;2.83;;;1.40;;
5147;SDS011;2592;48.140;7.614;2022-10-22T11:05:48;4.37;;;1.43;;
5147;SDS011;2592;48.140;7.614;2022-10-22T11:08:19;7.20;;;1.83;;
5147;SDS011;2592;48.140;7.614;2022-10-22T11:10:47;2.83;;;1.27;;
5147;SDS011;2592;48.140;7.614;2022-10-22T11:13:16;4.27;;;3.23;;
5147;SDS011;2592;48.140;7.614;2022-10-22T11:15:44;4.93;;;1.37;;
5147;SDS011;2592;48.140;7.614;2022-10-22T11:18:14;13.07;;;1.57;;
5147;SDS011;2592;48.140;7.614;2022-10-22T11:20:44;7.33;;;1.50;;
5147;SDS011;2592;48.140;7.614;2022-10-22T11:23:15;5.07;;;1.57;;
5147;SDS011;2592;48.140;7.614;2022-10-22T11:25:42;6.33;;;1.67;;
5147;SDS011;2592;48.140;7.614;2022-10-22T11:28:11;7.03;;;2.07;;
5147;SDS011;2592;48.140;7.614;2022-10-22T11:30:39;2.43;;;1.43;;
5147;SDS011;2592;48.140;7.614;2022-10-22T11:33:09;2.20;;;1.10;;
5147;SDS011;2592;48.140;7.614;2022-10-22T11:35:38;2.27;;;1.33;;
5147;SDS011;2592;48.140;7.614;2022-10-22T11:38:05;3.93;;;1.20;;
5147;SDS011;2592;48.140;7.614;2022-10-22T11:40:34;4.00;;;1.13;;
5147;SDS011;2592;48.140;7.614;2022-10-22T11:43:02;4.60;;;1.10;;
5147;SDS011;2592;48.140;7.614;2022-10-22T11:45:30;4.00;;;1.40;;
5147;SDS011;2592;48.140;7.614;2022-10-22T11:47:58;8.23;;;1.33;;
5147;SDS011;2592;48.140;7.614;2022-10-22T11:50:25;3.70;;;2.37;;
5147;SDS011;2592;48.140;7.614;2022-10-22T11:53:00;4.80;;;1.80;;
5147;SDS011;2592;48.140;7.614;2022-10-22T11:55:40;2.50;;;1.33;;
5147;SDS011;2592;48.140;7.614;2022-10-22T11:58:24;5.33;;;1.87;;
5147;SDS011;2592;48.140;7.614;2022-10-22T12:00:51;3.60;;;1.53;;
5147;SDS011;2592;48.140;7.614;2022-10-22T12:03:18;2.10;;;1.10;;
5147;SDS011;2592;48.140;7.614;2022-10-22T12:06:01;3.07;;;1.03;;
5147;SDS011;2592;48.140;7.614;2022-10-22T12:08:29;3.53;;;1.60;;
5147;SDS011;2592;48.140;7.614;2022-10-22T12:11:04;5.03;;;1.97;;
5147;SDS011;2592;48.140;7.614;2022-10-22T12:13:32;2.90;;;1.57;;
5147;SDS011;2592;48.140;7.614;2022-10-22T12:16:01;5.10;;;1.70;;
5147;SDS011;2592;48.140;7.614;2022-10-22T12:18:30;2.53;;;1.67;;
5147;SDS011;2592;48.140;7.614;2022-10-22T12:20:58;4.10;;;1.80;;
5147;SDS011;2592;48.140;7.614;2022-10-22T12:23:25;5.80;;;1.50;;
5147;SDS011;2592;48.140;7.614;2022-10-22T12:25:55;3.33;;;1.10;;
5147;SDS011;2592;48.140;7.614;2022-10-22T12:28:21;4.17;;;1.60;;
5147;SDS011;2592;48.140;7.614;2022-10-22T12:30:48;4.93;;;1.17;;
5147;SDS011;2592;48.140;7.614;2022-10-22T12:33:18;4.43;;;1.10;;
5147;SDS011;2592;48.140;7.614;2022-10-22T12:35:45;2.87;;;1.57;;
5147;SDS011;2592;48.140;7.614;2022-10-22T12:38:12;8.47;;;1.57;;
5147;SDS011;2592;48.140;7.614;2022-10-22T12:40:39;4.23;;;1.70;;
5147;SDS011;2592;48.140;7.614;2022-10-22T12:43:09;5.10;;;1.40;;
5147;SDS011;2592;48.140;7.614;2022-10-22T12:45:36;8.73;;;2.00;;
5147;SDS011;2592;48.140;7.614;2022-10-22T12:48:03;7.73;;;1.60;;
5147;SDS011;2592;48.140;7.614;2022-10-22T12:50:31;3.30;;;1.20;;
5147;SDS011;2592;48.140;7.614;2022-10-22T12:52:59;6.97;;;1.50;;
5147;SDS011;2592;48.140;7.614;2022-10-22T12:55:34;4.00;;;1.67;;
5147;SDS011;2592;48.140;7.614;2022-10-22T12:58:03;5.27;;;1.77;;
5147;SDS011;2592;48.140;7.614;2022-10-22T13:00:33;4.40;;;1.63;;
5147;SDS011;2592;48.140;7.614;2022-10-22T13:03:01;7.40;;;1.27;;
5147;SDS011;2592;48.140;7.614;2022-10-22T13:05:29;30.60;;;21.40;;
5147;SDS011;2592;48.140;7.614;2022-10-22T13:08:00;7.43;;;3.50;;
5147;SDS011;2592;48.140;7.614;2022-10-22T13:10:30;9.60;;;6.10;;
5147;SDS011;2592;48.140;7.614;2022-10-22T13:12:57;7.00;;;1.93;;
5147;SDS011;2592;48.140;7.614;2022-10-22T13:15:35;5.70;;;2.83;;
5147;SDS011;2592;48.140;7.614;2022-10-22T13:18:03;4.87;;;2.30;;
5147;SDS011;2592;48.140;7.614;2022-10-22T13:20:30;7.90;;;2.93;;
5147;SDS011;2592;48.140;7.614;2022-10-22T13:22:57;11.30;;;8.20;;
5147;SDS011;2592;48.140;7.614;2022-10-22T13:25:25;8.33;;;2.27;;
5147;SDS011;2592;48.140;7.614;2022-10-22T13:27:52;4.37;;;1.90;;
5147;SDS011;2592;48.140;7.614;2022-10-22T13:30:20;6.80;;;3.80;;
5147;SDS011;2592;48.140;7.614;2022-10-22T13:32:52;6.03;;;2.80;;
5147;SDS011;2592;48.140;7.614;2022-10-22T13:35:20;2.73;;;1.80;;
5147;SDS011;2592;48.140;7.614;2022-10-22T13:37:47;8.20;;;1.80;;
5147;SDS011;2592;48.140;7.614;2022-10-22T13:40:13;4.73;;;1.70;;
5147;SDS011;2592;48.140;7.614;2022-10-22T13:42:40;6.03;;;3.17;;
5147;SDS011;2592;48.140;7.614;2022-10-22T13:45:06;8.33;;;2.23;;
5147;SDS011;2592;48.140;7.614;2022-10-22T13:47:33;6.80;;;1.40;;
5147;SDS011;2592;48.140;7.614;2022-10-22T13:50:02;6.53;;;1.57;;
5147;SDS011;2592;48.140;7.614;2022-10-22T13:52:33;4.43;;;1.87;;
5147;SDS011;2592;48.140;7.614;2022-10-22T13:55:00;3.60;;;1.10;;
5147;SDS011;2592;48.140;7.614;2022-10-22T13:57:27;5.67;;;4.50;;
5147;SDS011;2592;48.140;7.614;2022-10-22T13:59:53;3.13;;;1.77;;
5147;SDS011;2592;48.140;7.614;2022-10-22T14:02:20;5.00;;;1.27;;
5147;SDS011;2592;48.140;7.614;2022-10-22T14:04:48;4.63;;;1.47;;
5147;SDS011;2592;48.140;7.614;2022-10-22T14:07:16;4.73;;;1.80;;
5147;SDS011;2592;48.140;7.614;2022-10-22T14:09:43;2.60;;;1.40;;
5147;SDS011;2592;48.140;7.614;2022-10-22T14:12:13;3.73;;;1.20;;
5147;SDS011;2592;48.140;7.614;2022-10-22T14:14:39;3.73;;;1.80;;
5147;SDS011;2592;48.140;7.614;2022-10-22T14:17:07;8.60;;;1.97;;
5147;SDS011;2592;48.140;7.614;2022-10-22T14:19:37;6.70;;;4.57;;
5147;SDS011;2592;48.140;7.614;2022-10-22T14:22:03;6.63;;;2.60;;
5147;SDS011;2592;48.140;7.614;2022-10-22T14:24:31;6.90;;;4.60;;
5147;SDS011;2592;48.140;7.614;2022-10-22T14:26:57;11.63;;;3.20;;
5147;SDS011;2592;48.140;7.614;2022-10-22T14:29:23;6.23;;;2.37;;
5147;SDS011;2592;48.140;7.614;2022-10-22T14:31:50;7.57;;;3.40;;
5147;SDS011;2592;48.140;7.614;2022-10-22T14:34:17;13.17;;;5.93;;
5147;SDS011;2592;48.140;7.614;2022-10-22T14:36:43;10.63;;;4.90;;
5147;SDS011;2592;48.140;7.614;2022-10-22T14:39:10;6.10;;;5.37;;
5147;SDS011;2592;48.140;7.614;2022-10-22T14:41:37;3.63;;;2.50;;
5147;SDS011;2592;48.140;7.614;2022-10-22T14:44:04;1.97;;;1.50;;
5147;SDS011;2592;48.140;7.614;2022-10-22T14:46:36;3.20;;;1.60;;
5147;SDS011;2592;48.140;7.614;2022-10-22T14:49:04;2.67;;;1.50;;
5147;SDS011;2592;48.140;7.614;2022-10-22T14:51:30;2.70;;;1.20;;
5147;SDS011;2592;48.140;7.614;2022-10-22T14:53:56;3.47;;;1.30;;
5147;SDS011;2592;48.140;7.614;2022-10-22T14:56:23;4.70;;;1.40;;
5147;SDS011;2592;48.140;7.614;2022-10-22T14:58:51;4.93;;;1.80;;
5147;SDS011;2592;48.140;7.614;2022-10-22T15:01:17;2.60;;;1.20;;
5147;SDS011;2592;48.140;7.614;2022-10-22T15:03:44;2.53;;;1.10;;
5147;SDS011;2592;48.140;7.614;2022-10-22T15:06:10;9.33;;;1.73;;
5147;SDS011;2592;48.140;7.614;2022-10-22T15:08:37;4.73;;;2.00;;
5147;SDS011;2592;48.140;7.614;2022-10-22T15:11:04;5.07;;;1.10;;
5147;SDS011;2592;48.140;7.614;2022-10-22T15:13:31;10.23;;;2.77;;
5147;SDS011;2592;48.140;7.614;2022-10-22T15:15:58;11.43;;;1.57;;